Time;durP1;ratioP1;P1;durP2;ratioP2;P2;SDS_P1;SDS_P2;PMS_P1;PMS_P2;Temp;Humidity;BMP_temperature;BMP_pressure;BME280_temperature;BME280_humidity;BME280_pressure;Samples;Min_cycle;Max_cycle;Signal;HPM_P1;HPM_P2
2021/06/18 00:00:01;;;;;;;5.83;5.23;;;;;;;;;;5034568;28;20816;-68
2021/06/18 00:02:27;;;;;;;6.93;5.63;;;;;;;;;;5034404;28;20438;-68
2021/06/18 00:04:53;;;;;;;11.53;6.20;;;;;;;;;;5035382;28;20407;-67
2021/06/18 00:07:20;;;;;;;6.23;5.47;;;;;;;;;;5035076;28;20405;-70
2021/06/18 00:09:46;;;;;;;8.00;5.53;;;;;;;;;;5035184;28;20947;-68
2021/06/18 00:12:12;;;;;;;6.60;5.67;;;;;;;;;;5035236;28;20511;-68
2021/06/18 00:14:39;;;;;;;7.63;5.43;;;;;;;;;;5034290;28;20426;-68
2021/06/18 00:17:05;;;;;;;6.90;5.30;;;;;;;;;;5035401;28;20430;-67
2021/06/18 00:19:31;;;;;;;9.77;5.77;;;;;;;;;;5034579;28;20453;-67
2021/06/18 00:21:57;;;;;;;8.87;5.93;;;;;;;;;;5035144;28;20403;-67
2021/06/18 00:24:23;;;;;;;11.53;5.63;;;;;;;;;;5033566;28;20513;-68
2021/06/18 00:26:49;;;;;;;8.40;5.23;;;;;;;;;;5035304;28;20427;-67
2021/06/18 00:29:15;;;;;;;7.90;5.47;;;;;;;;;;5034304;28;20514;-68
2021/06/18 00:31:41;;;;;;;7.20;5.90;;;;;;;;;;5034396;28;20766;-67
2021/06/18 00:34:07;;;;;;;11.60;6.00;;;;;;;;;;5033980;28;20502;-68
2021/06/18 00:36:33;;;;;;;9.90;5.70;;;;;;;;;;5034878;28;20398;-67
2021/06/18 00:39:00;;;;;;;12.60;5.33;;;;;;;;;;5034022;28;20422;-67
2021/06/18 00:41:26;;;;;;;9.83;5.90;;;;;;;;;;5034910;28;20430;-67
2021/06/18 00:43:53;;;;;;;8.20;5.97;;;;;;;;;;5032532;28;20820;-67
2021/06/18 00:46:19;;;;;;;8.97;7.17;;;;;;;;;;5034599;28;20406;-67
2021/06/18 00:48:45;;;;;;;8.40;5.20;;;;;;;;;;5024337;28;20438;-67
2021/06/18 00:51:11;;;;;;;8.70;5.87;;;;;;;;;;5014648;28;20456;-67
2021/06/18 00:53:39;;;;;;;9.63;5.80;;;;;;;;;;5022681;28;20815;-67
2021/06/18 00:56:06;;;;;;;9.00;5.43;;;;;;;;;;5033381;28;20899;-67
2021/06/18 00:58:32;;;;;;;10.50;6.60;;;;;;;;;;5033713;28;20775;-68
2021/06/18 01:00:58;;;;;;;9.93;5.40;;;;;;;;;;5034578;28;20423;-67
2021/06/18 01:03:24;;;;;;;7.67;5.80;;;;;;;;;;5033359;28;20430;-68
2021/06/18 01:05:51;;;;;;;6.50;5.63;;;;;;;;;;5034205;28;20398;-68
2021/06/18 01:08:18;;;;;;;7.40;5.67;;;;;;;;;;5033567;28;20426;-68
2021/06/18 01:10:49;;;;;;;9.33;5.87;;;;;;;;;;5034275;28;20427;-67
2021/06/18 01:13:15;;;;;;;7.20;6.50;;;;;;;;;;5032966;28;20533;-67
2021/06/18 01:15:49;;;;;;;11.57;6.30;;;;;;;;;;5034084;28;20406;-67
2021/06/18 01:18:18;;;;;;;8.80;6.37;;;;;;;;;;5033320;28;20426;-68
2021/06/18 01:20:47;;;;;;;7.20;5.77;;;;;;;;;;5022355;28;20451;-68
2021/06/18 01:23:29;;;;;;;7.87;5.80;;;;;;;;;;5031855;28;20485;-68
2021/06/18 01:26:17;;;;;;;7.97;5.53;;;;;;;;;;5033180;28;20422;-68
2021/06/18 01:28:52;;;;;;;8.40;5.83;;;;;;;;;;5032730;28;20944;-67
2021/06/18 01:31:21;;;;;;;7.13;5.67;;;;;;;;;;5033683;28;20442;-67
2021/06/18 01:33:55;;;;;;;6.70;5.93;;;;;;;;;;5032866;28;20825;-68
2021/06/18 01:36:23;;;;;;;8.17;6.07;;;;;;;;;;5031903;28;20410;-68
2021/06/18 01:38:51;;;;;;;7.10;5.60;;;;;;;;;;5033524;28;20426;-67
2021/06/18 01:41:19;;;;;;;9.93;5.87;;;;;;;;;;5033913;28;20838;-67
2021/06/18 01:43:46;;;;;;;8.47;5.60;;;;;;;;;;5032590;28;20510;-67
2021/06/18 01:46:14;;;;;;;7.70;5.97;;;;;;;;;;5032659;28;20510;-68
2021/06/18 01:48:40;;;;;;;8.47;5.70;;;;;;;;;;5031518;28;20437;-68
2021/06/18 01:51:07;;;;;;;7.20;5.80;;;;;;;;;;5031278;28;20474;-68
2021/06/18 01:53:34;;;;;;;11.37;5.50;;;;;;;;;;5022151;28;20450;-67
2021/06/18 01:56:01;;;;;;;7.10;5.10;;;;;;;;;;5031552;28;20434;-67
2021/06/18 01:58:29;;;;;;;8.33;5.40;;;;;;;;;;5033569;28;20429;-67
2021/06/18 02:00:56;;;;;;;6.90;5.20;;;;;;;;;;5032095;28;20485;-67
2021/06/18 02:03:30;;;;;;;6.97;5.17;;;;;;;;;;5032365;28;20459;-67
2021/06/18 02:05:58;;;;;;;7.10;5.80;;;;;;;;;;5031918;28;20769;-67
2021/06/18 02:08:24;;;;;;;7.30;5.40;;;;;;;;;;5033235;28;20410;-67
2021/06/18 02:10:51;;;;;;;6.60;5.57;;;;;;;;;;5031959;28;20490;-67
2021/06/18 02:13:18;;;;;;;10.87;5.93;;;;;;;;;;5032982;28;20457;-67
2021/06/18 02:15:44;;;;;;;10.00;6.30;;;;;;;;;;5045532;28;20828;-67
2021/06/18 02:18:12;;;;;;;9.57;5.63;;;;;;;;;;5052925;28;20402;-67
2021/06/18 02:20:42;;;;;;;6.53;5.83;;;;;;;;;;5026945;28;20440;-67
2021/06/18 02:23:10;;;;;;;7.60;5.00;;;;;;;;;;5027780;28;20773;-67
2021/06/18 02:25:37;;;;;;;7.70;5.03;;;;;;;;;;5038850;28;20426;-67
2021/06/18 02:28:04;;;;;;;6.03;5.13;;;;;;;;;;5033076;28;20419;-68
2021/06/18 02:30:30;;;;;;;7.07;5.03;;;;;;;;;;5042778;28;20450;-68
2021/06/18 02:32:58;;;;;;;6.67;6.07;;;;;;;;;;5055475;28;20532;-68
2021/06/18 02:35:24;;;;;;;7.50;5.97;;;;;;;;;;5057402;28;20426;-68
2021/06/18 02:37:50;;;;;;;6.43;5.73;;;;;;;;;;5058603;28;20456;-68
2021/06/18 02:40:16;;;;;;;7.30;5.80;;;;;;;;;;5059452;28;20477;-68
2021/06/18 02:42:42;;;;;;;6.77;5.10;;;;;;;;;;5065249;28;20894;-68
2021/06/18 02:45:09;;;;;;;7.00;5.90;;;;;;;;;;5055664;28;20427;-68
2021/06/18 02:47:55;;;;;;;8.43;6.40;;;;;;;;;;5043104;28;20403;-68
2021/06/18 02:50:36;;;;;;;11.23;6.77;;;;;;;;;;5030736;28;20474;-67
2021/06/18 02:53:15;;;;;;;12.33;6.90;;;;;;;;;;5032857;28;20442;-67
2021/06/18 02:55:44;;;;;;;10.50;6.87;;;;;;;;;;5031190;28;20445;-67
2021/06/18 02:58:16;;;;;;;9.23;6.43;;;;;;;;;;5032842;28;20410;-67
2021/06/18 03:00:42;;;;;;;6.90;6.10;;;;;;;;;;5031726;28;20442;-67
2021/06/18 03:03:09;;;;;;;13.63;6.27;;;;;;;;;;5032773;28;20548;-67
2021/06/18 03:05:35;;;;;;;9.50;5.87;;;;;;;;;;5022115;28;21027;-67
2021/06/18 03:08:05;;;;;;;7.87;5.70;;;;;;;;;;5013246;28;20766;-67
2021/06/18 03:10:36;;;;;;;8.47;5.87;;;;;;;;;;5012824;28;20443;-67
2021/06/18 03:13:03;;;;;;;7.07;5.97;;;;;;;;;;5013124;28;20455;-67
2021/06/18 03:15:31;;;;;;;9.73;5.73;;;;;;;;;;5021220;28;20903;-67
2021/06/18 03:17:58;;;;;;;6.63;5.30;;;;;;;;;;5033197;28;20494;-68
2021/06/18 03:20:25;;;;;;;6.53;5.73;;;;;;;;;;5027189;28;20558;-67
2021/06/18 03:22:54;;;;;;;11.70;5.73;;;;;;;;;;5018087;28;20810;-67
2021/06/18 03:25:21;;;;;;;8.40;5.00;;;;;;;;;;5026462;28;20504;-67
2021/06/18 03:27:49;;;;;;;6.70;5.30;;;;;;;;;;5036530;28;20467;-68
2021/06/18 03:30:15;;;;;;;6.83;5.30;;;;;;;;;;5023547;28;20438;-67
2021/06/18 03:32:42;;;;;;;6.77;5.30;;;;;;;;;;5036115;28;20548;-67
2021/06/18 03:35:09;;;;;;;5.50;4.90;;;;;;;;;;5035377;28;20776;-67
2021/06/18 03:37:37;;;;;;;7.43;5.03;;;;;;;;;;5036024;28;20410;-67
2021/06/18 03:40:03;;;;;;;6.37;5.30;;;;;;;;;;5035052;28;20812;-67
2021/06/18 03:42:29;;;;;;;5.20;4.70;;;;;;;;;;5036004;28;20418;-67
2021/06/18 03:44:56;;;;;;;5.13;4.63;;;;;;;;;;5034918;28;20924;-67
2021/06/18 03:47:22;;;;;;;11.00;4.77;;;;;;;;;;5036187;28;20820;-67
2021/06/18 03:49:49;;;;;;;6.23;4.20;;;;;;;;;;5034431;28;20466;-67
2021/06/18 03:52:16;;;;;;;5.60;4.97;;;;;;;;;;5036017;28;20484;-67
2021/06/18 03:54:42;;;;;;;10.60;5.10;;;;;;;;;;5033917;28;20423;-68
2021/06/18 03:57:08;;;;;;;7.10;6.10;;;;;;;;;;5015919;28;20495;-67
2021/06/18 03:59:35;;;;;;;9.97;6.50;;;;;;;;;;5015794;28;20412;-67
2021/06/18 04:02:01;;;;;;;7.60;5.40;;;;;;;;;;5021802;28;20437;-67
2021/06/18 04:04:29;;;;;;;7.83;5.60;;;;;;;;;;5051159;28;20452;-68
2021/06/18 04:06:55;;;;;;;5.30;4.40;;;;;;;;;;5016573;28;20510;-67
2021/06/18 04:09:22;;;;;;;8.07;5.50;;;;;;;;;;5015634;28;20407;-67
2021/06/18 04:11:48;;;;;;;7.80;5.50;;;;;;;;;;5032455;28;20429;-67
2021/06/18 04:14:14;;;;;;;8.73;5.60;;;;;;;;;;5035511;28;20469;-67
2021/06/18 04:16:40;;;;;;;8.23;5.30;;;;;;;;;;5019339;28;20420;-67
2021/06/18 04:19:10;;;;;;;9.43;5.20;;;;;;;;;;5015765;28;20418;-67
2021/06/18 04:21:40;;;;;;;8.33;5.40;;;;;;;;;;5030522;28;20517;-67
2021/06/18 04:24:07;;;;;;;7.93;4.93;;;;;;;;;;5035514;28;20430;-67
2021/06/18 04:26:33;;;;;;;6.23;4.97;;;;;;;;;;5034338;28;20427;-67
2021/06/18 04:28:59;;;;;;;8.63;5.20;;;;;;;;;;5034930;28;20450;-67
2021/06/18 04:31:25;;;;;;;12.30;5.40;;;;;;;;;;5035229;28;20947;-67
2021/06/18 04:33:51;;;;;;;8.40;5.70;;;;;;;;;;5034908;28;20876;-67
2021/06/18 04:36:17;;;;;;;7.10;4.93;;;;;;;;;;5033895;28;20427;-67
2021/06/18 04:38:43;;;;;;;7.97;5.50;;;;;;;;;;5035028;28;20407;-67
2021/06/18 04:41:09;;;;;;;6.80;5.63;;;;;;;;;;5033758;28;20805;-67
2021/06/18 04:43:35;;;;;;;11.13;6.77;;;;;;;;;;5035066;28;20966;-66
2021/06/18 04:46:01;;;;;;;8.17;5.80;;;;;;;;;;5027924;28;20925;-69
2021/06/18 04:48:28;;;;;;;7.40;6.27;;;;;;;;;;5015155;28;20462;-67
2021/06/18 04:50:55;;;;;;;9.20;6.10;;;;;;;;;;5014735;28;20545;-69
2021/06/18 04:53:21;;;;;;;5.10;4.50;;;;;;;;;;5015042;28;20596;-66
2021/06/18 04:55:47;;;;;;;7.40;5.60;;;;;;;;;;5015115;28;20420;-69
2021/06/18 04:58:14;;;;;;;8.67;5.63;;;;;;;;;;5015525;28;20408;-68
2021/06/18 05:00:40;;;;;;;6.70;5.20;;;;;;;;;;5019814;28;20447;-68
2021/06/18 05:03:07;;;;;;;6.87;5.70;;;;;;;;;;5034467;28;20411;-68
2021/06/18 05:05:33;;;;;;;5.70;5.10;;;;;;;;;;5033153;28;20454;-68
2021/06/18 05:07:59;;;;;;;6.20;4.93;;;;;;;;;;5033750;28;20449;-68
2021/06/18 05:10:26;;;;;;;11.23;6.17;;;;;;;;;;5033168;28;20580;-68
2021/06/18 05:12:52;;;;;;;7.43;5.20;;;;;;;;;;5034521;28;20455;-67
2021/06/18 05:15:19;;;;;;;6.10;5.30;;;;;;;;;;5033345;28;20413;-68
2021/06/18 05:17:45;;;;;;;10.63;5.43;;;;;;;;;;5034314;28;20415;-68
2021/06/18 05:20:12;;;;;;;9.27;5.60;;;;;;;;;;5032794;28;20915;-69
2021/06/18 05:22:38;;;;;;;6.53;4.80;;;;;;;;;;5014241;28;20415;-68
2021/06/18 05:25:05;;;;;;;9.23;4.80;;;;;;;;;;5014104;28;20396;-68
2021/06/18 05:27:31;;;;;;;6.17;5.57;;;;;;;;;;5033966;28;20604;-66
2021/06/18 05:29:57;;;;;;;6.13;5.30;;;;;;;;;;5033909;28;20977;-67
2021/06/18 05:32:23;;;;;;;8.00;6.60;;;;;;;;;;5015179;28;20501;-66
2021/06/18 05:34:49;;;;;;;7.43;5.37;;;;;;;;;;5014229;28;20422;-68
2021/06/18 05:37:15;;;;;;;6.33;4.83;;;;;;;;;;5030931;28;20769;-66
2021/06/18 05:39:42;;;;;;;6.60;4.97;;;;;;;;;;5032445;28;20801;-67
2021/06/18 05:42:08;;;;;;;7.43;4.37;;;;;;;;;;5032308;28;20472;-67
2021/06/18 05:44:34;;;;;;;6.50;5.23;;;;;;;;;;5033868;28;20398;-67
2021/06/18 05:47:00;;;;;;;6.90;4.50;;;;;;;;;;5032662;28;20419;-68
2021/06/18 05:49:26;;;;;;;8.00;4.70;;;;;;;;;;5033390;28;20420;-68
2021/06/18 05:51:52;;;;;;;6.80;4.70;;;;;;;;;;5032576;28;20433;-67
2021/06/18 05:54:19;;;;;;;6.83;5.10;;;;;;;;;;5032486;28;20494;-68
2021/06/18 05:56:45;;;;;;;5.90;4.60;;;;;;;;;;5032469;28;20462;-68
2021/06/18 05:59:11;;;;;;;6.80;4.73;;;;;;;;;;5033408;28;20899;-68
2021/06/18 06:01:37;;;;;;;7.97;5.03;;;;;;;;;;5032972;28;20450;-68
2021/06/18 06:04:03;;;;;;;5.40;4.33;;;;;;;;;;5033367;28;20433;-68
2021/06/18 06:06:29;;;;;;;14.23;4.50;;;;;;;;;;5032364;28;20469;-68
2021/06/18 06:08:55;;;;;;;8.60;5.07;;;;;;;;;;5033512;28;20486;-68
2021/06/18 06:11:22;;;;;;;7.03;4.77;;;;;;;;;;5025945;28;20447;-68
2021/06/18 06:13:49;;;;;;;5.73;4.87;;;;;;;;;;5013394;28;20471;-68
2021/06/18 06:16:15;;;;;;;10.23;4.80;;;;;;;;;;5025663;28;20431;-68
2021/06/18 06:18:41;;;;;;;5.33;4.17;;;;;;;;;;5013644;28;20403;-68
2021/06/18 06:21:07;;;;;;;14.33;5.73;;;;;;;;;;5013235;28;20498;-68
2021/06/18 06:23:34;;;;;;;6.40;4.43;;;;;;;;;;5013256;28;20938;-68
2021/06/18 06:26:00;;;;;;;5.13;4.40;;;;;;;;;;5016545;28;20911;-68
2021/06/18 06:28:28;;;;;;;5.47;4.10;;;;;;;;;;5032965;28;20406;-68
2021/06/18 06:30:55;;;;;;;5.10;4.60;;;;;;;;;;5032425;28;20492;-68
2021/06/18 06:33:21;;;;;;;8.43;4.23;;;;;;;;;;5032816;28;20473;-68
2021/06/18 06:35:47;;;;;;;5.17;4.27;;;;;;;;;;5031822;28;20445;-68
2021/06/18 06:38:16;;;;;;;5.80;5.17;;;;;;;;;;5033174;28;20395;-68
2021/06/18 06:40:42;;;;;;;6.83;4.93;;;;;;;;;;5027768;28;20550;-67
2021/06/18 06:43:08;;;;;;;11.27;5.50;;;;;;;;;;5033015;28;20762;-68
2021/06/18 06:45:34;;;;;;;7.80;4.40;;;;;;;;;;5032738;28;20399;-68
2021/06/18 06:48:00;;;;;;;6.40;4.53;;;;;;;;;;5029759;28;20881;-68
2021/06/18 06:50:26;;;;;;;6.73;4.30;;;;;;;;;;5031413;28;20511;-68
2021/06/18 06:52:52;;;;;;;9.03;5.77;;;;;;;;;;5016490;28;20459;-68
2021/06/18 06:55:18;;;;;;;8.43;4.57;;;;;;;;;;5016998;28;20431;-68
2021/06/18 06:57:44;;;;;;;10.73;4.67;;;;;;;;;;5033013;28;20438;-68
2021/06/18 07:00:11;;;;;;;7.20;4.93;;;;;;;;;;5036681;28;20410;-68
2021/06/18 07:02:37;;;;;;;6.27;4.90;;;;;;;;;;5035839;28;20426;-68
2021/06/18 07:05:03;;;;;;;8.80;4.30;;;;;;;;;;5036679;28;20494;-68
2021/06/18 07:07:29;;;;;;;6.37;4.63;;;;;;;;;;5036032;28;20751;-68
2021/06/18 07:09:55;;;;;;;4.80;4.30;;;;;;;;;;5036546;28;20993;-68
2021/06/18 07:12:21;;;;;;;6.37;4.60;;;;;;;;;;5035374;28;20801;-68
2021/06/18 07:14:48;;;;;;;8.07;4.80;;;;;;;;;;5036401;28;20918;-68
2021/06/18 07:17:14;;;;;;;6.73;4.60;;;;;;;;;;5035658;28;20426;-68
2021/06/18 07:19:40;;;;;;;5.93;4.00;;;;;;;;;;5036354;28;20485;-68
2021/06/18 07:22:07;;;;;;;5.23;4.73;;;;;;;;;;5025346;28;20443;-68
2021/06/18 07:24:34;;;;;;;7.10;4.87;;;;;;;;;;5016835;28;20808;-68
2021/06/18 07:27:00;;;;;;;5.90;4.93;;;;;;;;;;5031641;28;20439;-68
2021/06/18 07:29:26;;;;;;;7.90;4.87;;;;;;;;;;5016543;28;20446;-68
2021/06/18 07:31:53;;;;;;;7.20;4.40;;;;;;;;;;5016286;28;20458;-68
2021/06/18 07:34:19;;;;;;;6.47;4.57;;;;;;;;;;5016507;28;20455;-68
2021/06/18 07:36:45;;;;;;;10.53;4.47;;;;;;;;;;5016296;28;20422;-68
2021/06/18 07:39:11;;;;;;;6.10;4.80;;;;;;;;;;5016263;28;20434;-68
2021/06/18 07:41:38;;;;;;;8.87;5.17;;;;;;;;;;5016224;28;20431;-68
2021/06/18 07:44:05;;;;;;;6.43;5.67;;;;;;;;;;5016426;28;20780;-68
2021/06/18 07:46:31;;;;;;;9.93;4.60;;;;;;;;;;5020078;28;20523;-68
2021/06/18 07:48:57;;;;;;;7.07;4.83;;;;;;;;;;5036001;28;20419;-68
2021/06/18 07:51:23;;;;;;;7.83;4.50;;;;;;;;;;5034979;28;20480;-68
2021/06/18 07:53:49;;;;;;;6.50;4.53;;;;;;;;;;5035749;28;20549;-68
2021/06/18 07:56:23;;;;;;;7.00;5.20;;;;;;;;;;5032946;28;20480;-68
2021/06/18 07:58:49;;;;;;;5.93;4.50;;;;;;;;;;5035806;28;20419;-68
2021/06/18 08:01:15;;;;;;;5.70;5.10;;;;;;;;;;5035364;28;20433;-69
2021/06/18 08:03:41;;;;;;;9.20;5.03;;;;;;;;;;5033899;28;20735;-68
2021/06/18 08:06:07;;;;;;;8.70;5.47;;;;;;;;;;5035236;28;20410;-69
2021/06/18 08:08:34;;;;;;;6.77;4.90;;;;;;;;;;5015589;28;20812;-68
2021/06/18 08:11:00;;;;;;;6.33;4.67;;;;;;;;;;5030841;28;20828;-68
2021/06/18 08:13:26;;;;;;;7.83;5.10;;;;;;;;;;5034013;28;20465;-68
2021/06/18 08:15:52;;;;;;;6.23;5.60;;;;;;;;;;5035170;28;20438;-68
2021/06/18 08:18:21;;;;;;;7.47;4.63;;;;;;;;;;5017297;28;20457;-70
2021/06/18 08:20:47;;;;;;;8.47;4.40;;;;;;;;;;5015591;28;20511;-75
2021/06/18 08:23:13;;;;;;;6.90;5.77;;;;;;;;;;5033621;28;20489;-71
2021/06/18 08:25:40;;;;;;;6.77;5.40;;;;;;;;;;5031326;28;20484;-72
2021/06/18 08:28:06;;;;;;;8.70;4.87;;;;;;;;;;5033649;28;20907;-71
2021/06/18 08:30:32;;;;;;;9.70;5.30;;;;;;;;;;5033968;28;20804;-71
2021/06/18 08:32:58;;;;;;;16.53;5.10;;;;;;;;;;5033792;28;20462;-71
2021/06/18 08:35:27;;;;;;;7.87;5.17;;;;;;;;;;5034758;28;20395;-71
2021/06/18 08:37:53;;;;;;;6.23;5.03;;;;;;;;;;5033799;28;20426;-69
2021/06/18 08:40:19;;;;;;;12.13;4.97;;;;;;;;;;5034378;28;20449;-74
2021/06/18 08:42:47;;;;;;;11.57;5.97;;;;;;;;;;5034104;28;20426;-73
2021/06/18 08:45:13;;;;;;;8.00;5.10;;;;;;;;;;5034653;28;20414;-72
2021/06/18 08:47:39;;;;;;;7.63;5.00;;;;;;;;;;5032272;28;20613;-71
2021/06/18 08:50:06;;;;;;;6.40;5.40;;;;;;;;;;5034513;28;20507;-72
2021/06/18 08:52:32;;;;;;;6.63;4.90;;;;;;;;;;5033085;28;20462;-74
2021/06/18 08:54:58;;;;;;;8.00;5.73;;;;;;;;;;5034327;28;20419;-73
2021/06/18 08:57:24;;;;;;;6.00;5.17;;;;;;;;;;5030931;28;20422;-71
2021/06/18 08:59:51;;;;;;;7.80;5.30;;;;;;;;;;5033687;28;20466;-72
2021/06/18 09:02:17;;;;;;;8.00;5.90;;;;;;;;;;5031397;28;20480;-73
2021/06/18 09:05:06;;;;;;;8.17;4.63;;;;;;;;;;5032027;28;20437;-72
2021/06/18 09:07:51;;;;;;;7.47;5.77;;;;;;;;;;5019712;28;20430;-71
2021/06/18 09:10:23;;;;;;;7.70;4.93;;;;;;;;;;5034327;28;20513;-70
2021/06/18 09:13:07;;;;;;;11.93;5.83;;;;;;;;;;5032156;28;20466;-70
2021/06/18 09:15:34;;;;;;;8.73;5.80;;;;;;;;;;5033480;28;20426;-71
2021/06/18 09:18:19;;;;;;;9.77;5.40;;;;;;;;;;5031293;28;20433;-72
2021/06/18 09:20:45;;;;;;;10.83;5.70;;;;;;;;;;5032665;28;20529;-71
2021/06/18 09:23:28;;;;;;;6.13;5.53;;;;;;;;;;5032403;28;20426;-72
2021/06/18 09:26:12;;;;;;;5.60;5.10;;;;;;;;;;5033238;28;20419;-70
2021/06/18 09:28:55;;;;;;;5.80;4.73;;;;;;;;;;5033193;28;20492;-67
2021/06/18 09:31:28;;;;;;;10.03;5.43;;;;;;;;;;5033444;28;20438;-70
2021/06/18 09:33:55;;;;;;;7.47;5.17;;;;;;;;;;5025052;28;20454;-69
2021/06/18 09:36:21;;;;;;;6.37;4.93;;;;;;;;;;5033553;28;20505;-68
2021/06/18 09:38:54;;;;;;;7.13;5.30;;;;;;;;;;5031846;28;20426;-69
2021/06/18 09:41:29;;;;;;;6.70;5.27;;;;;;;;;;5034147;28;20422;-69
2021/06/18 09:44:03;;;;;;;6.80;5.17;;;;;;;;;;5033427;28;21052;-70
2021/06/18 09:46:41;;;;;;;12.73;5.30;;;;;;;;;;5032711;28;20975;-67
2021/06/18 09:49:07;;;;;;;5.03;4.53;;;;;;;;;;5032729;28;20433;-68
2021/06/18 09:51:52;;;;;;;7.70;5.20;;;;;;;;;;5034251;28;20526;-69
2021/06/18 09:54:19;;;;;;;6.30;4.77;;;;;;;;;;5026528;28;20809;-70
2021/06/18 09:56:45;;;;;;;11.23;5.30;;;;;;;;;;5027062;28;20561;-69
2021/06/18 09:59:22;;;;;;;8.60;5.43;;;;;;;;;;5031441;28;20427;-72
2021/06/18 10:01:54;;;;;;;7.40;4.90;;;;;;;;;;5027112;28;20430;-73
2021/06/18 10:04:23;;;;;;;11.03;5.70;;;;;;;;;;5023666;28;20801;-69
2021/06/18 10:06:50;;;;;;;7.43;5.10;;;;;;;;;;5023602;28;20427;-71
2021/06/18 10:09:16;;;;;;;6.63;5.00;;;;;;;;;;5027706;28;20439;-73
2021/06/18 10:11:43;;;;;;;7.80;5.70;;;;;;;;;;5022473;28;20505;-73
2021/06/18 10:14:09;;;;;;;7.77;5.03;;;;;;;;;;5027155;28;20490;-71
2021/06/18 10:16:36;;;;;;;10.60;5.50;;;;;;;;;;5033272;28;20464;-71
2021/06/18 10:19:02;;;;;;;5.97;5.37;;;;;;;;;;5032152;28;20440;-69
2021/06/18 10:21:29;;;;;;;7.30;5.20;;;;;;;;;;5032939;28;20426;-72
2021/06/18 10:23:57;;;;;;;6.03;4.73;;;;;;;;;;5031646;28;20517;-73
2021/06/18 10:26:24;;;;;;;8.67;4.83;;;;;;;;;;5032563;28;20427;-71
2021/06/18 10:28:54;;;;;;;5.53;4.70;;;;;;;;;;5031417;28;20430;-73
2021/06/18 10:31:28;;;;;;;7.00;4.83;;;;;;;;;;5033193;28;20533;-71
2021/06/18 10:34:16;;;;;;;8.27;4.50;;;;;;;;;;5032354;28;20860;-72
2021/06/18 10:36:42;;;;;;;7.30;5.40;;;;;;;;;;5033189;28;20394;-73
2021/06/18 10:39:14;;;;;;;6.30;4.67;;;;;;;;;;5027528;28;20418;-72
2021/06/18 10:41:46;;;;;;;5.37;4.40;;;;;;;;;;5032635;28;20414;-72
2021/06/18 10:44:12;;;;;;;8.20;4.60;;;;;;;;;;5032332;28;20457;-70
2021/06/18 10:46:39;;;;;;;7.40;4.50;;;;;;;;;;5033175;28;20403;-70
2021/06/18 10:49:08;;;;;;;5.43;4.10;;;;;;;;;;5031916;28;20451;-69
2021/06/18 10:51:38;;;;;;;7.20;4.77;;;;;;;;;;5032241;28;20517;-69
2021/06/18 10:54:09;;;;;;;7.03;5.20;;;;;;;;;;5031522;28;20566;-69
2021/06/18 10:56:47;;;;;;;7.30;4.90;;;;;;;;;;5033057;28;20902;-72
2021/06/18 10:59:30;;;;;;;7.10;5.33;;;;;;;;;;5024808;28;20433;-73
2021/06/18 11:01:57;;;;;;;7.57;4.77;;;;;;;;;;5033316;28;20403;-70
2021/06/18 11:04:45;;;;;;;5.97;4.10;;;;;;;;;;5032178;28;20422;-70
2021/06/18 11:07:20;;;;;;;5.40;3.90;;;;;;;;;;5025852;28;20419;-70
2021/06/18 11:09:47;;;;;;;6.17;4.57;;;;;;;;;;5027820;28;20466;-71
2021/06/18 11:12:29;;;;;;;6.50;4.97;;;;;;;;;;5012984;28;20483;-72
2021/06/18 11:14:59;;;;;;;8.33;5.17;;;;;;;;;;5019211;28;20427;-71
2021/06/18 11:17:38;;;;;;;12.00;8.30;;;;;;;;;;5029301;28;20414;-72
2021/06/18 11:20:08;;;;;;;5.90;4.27;;;;;;;;;;5029932;28;20446;-71
2021/06/18 11:22:35;;;;;;;6.70;4.90;;;;;;;;;;5031887;28;20402;-70
2021/06/18 11:25:01;;;;;;;5.93;4.23;;;;;;;;;;5030355;28;20407;-70
2021/06/18 11:27:30;;;;;;;7.97;4.73;;;;;;;;;;5032913;28;20441;-70
2021/06/18 11:30:15;;;;;;;7.17;3.93;;;;;;;;;;5031086;28;20478;-73
2021/06/18 11:32:44;;;;;;;5.27;3.93;;;;;;;;;;5031489;28;20462;-71
2021/06/18 11:35:37;;;;;;;5.80;4.47;;;;;;;;;;5028951;28;20430;-70
2021/06/18 11:38:17;;;;;;;5.73;3.93;;;;;;;;;;5016084;28;20468;-69
2021/06/18 11:40:45;;;;;;;5.80;4.00;;;;;;;;;;5025260;28;20481;-70
2021/06/18 11:43:11;;;;;;;5.10;3.87;;;;;;;;;;5020352;28;20533;-71
2021/06/18 11:45:39;;;;;;;7.60;4.27;;;;;;;;;;5036908;28;20942;-73
2021/06/18 11:48:11;;;;;;;5.00;4.10;;;;;;;;;;5036326;28;20464;-71
2021/06/18 11:50:37;;;;;;;4.77;3.93;;;;;;;;;;5034596;28;20470;-72
2021/06/18 11:53:03;;;;;;;5.10;4.60;;;;;;;;;;5050759;28;20531;-70
2021/06/18 11:55:30;;;;;;;5.07;3.90;;;;;;;;;;5037018;28;20414;-71
2021/06/18 11:57:56;;;;;;;4.90;4.30;;;;;;;;;;5036265;28;20411;-71
2021/06/18 12:00:32;;;;;;;6.20;4.43;;;;;;;;;;5040205;28;20419;-73
2021/06/18 12:02:58;;;;;;;8.03;4.00;;;;;;;;;;5036054;28;20903;-71
2021/06/18 12:05:29;;;;;;;4.73;3.90;;;;;;;;;;5036527;28;20464;-72
2021/06/18 12:07:55;;;;;;;5.43;3.80;;;;;;;;;;5034967;28;20422;-72
2021/06/18 12:10:23;;;;;;;6.43;4.17;;;;;;;;;;5033377;28;20963;-72
2021/06/18 12:12:51;;;;;;;6.13;3.60;;;;;;;;;;5035781;28;20454;-73
2021/06/18 12:15:18;;;;;;;6.53;3.87;;;;;;;;;;5034911;28;20456;-75
2021/06/18 12:17:55;;;;;;;6.73;4.43;;;;;;;;;;5035148;28;20418;-74
2021/06/18 12:20:25;;;;;;;6.87;4.40;;;;;;;;;;5035092;28;20806;-73
2021/06/18 12:22:51;;;;;;;11.67;6.23;;;;;;;;;;5035507;28;20484;-75
2021/06/18 12:25:18;;;;;;;5.20;4.17;;;;;;;;;;5033952;28;20977;-71
2021/06/18 12:27:44;;;;;;;6.07;4.13;;;;;;;;;;5034721;28;20507;-71
2021/06/18 12:30:14;;;;;;;5.40;4.20;;;;;;;;;;5033797;28;21050;-70
2021/06/18 12:32:41;;;;;;;6.00;4.13;;;;;;;;;;5035047;28;20455;-70
2021/06/18 12:35:08;;;;;;;4.90;3.40;;;;;;;;;;5032965;28;20514;-72
2021/06/18 12:37:41;;;;;;;4.50;3.40;;;;;;;;;;5034793;28;20421;-72
2021/06/18 12:40:07;;;;;;;9.00;4.40;;;;;;;;;;5034007;28;20469;-71
2021/06/18 12:42:39;;;;;;;7.00;4.50;;;;;;;;;;5034523;28;20501;-73
2021/06/18 12:45:09;;;;;;;4.83;3.50;;;;;;;;;;5034238;28;20475;-73
2021/06/18 12:47:36;;;;;;;6.30;4.10;;;;;;;;;;5035192;28;20820;-72
2021/06/18 12:50:20;;;;;;;4.40;3.60;;;;;;;;;;5033478;28;20466;-72
2021/06/18 12:52:53;;;;;;;5.30;3.90;;;;;;;;;;5033908;28;20548;-72
2021/06/18 12:55:46;;;;;;;6.20;4.27;;;;;;;;;;5033981;28;20429;-73
2021/06/18 12:58:18;;;;;;;7.33;3.83;;;;;;;;;;5030935;28;20433;-71
2021/06/18 13:00:57;;;;;;;6.63;4.47;;;;;;;;;;5025243;28;20426;-73
2021/06/18 13:03:29;;;;;;;5.80;3.83;;;;;;;;;;5033342;28;20925;-71
2021/06/18 13:05:55;;;;;;;4.87;4.07;;;;;;;;;;5022757;28;20432;-72
2021/06/18 13:08:22;;;;;;;4.30;3.57;;;;;;;;;;5033496;28;20419;-72
2021/06/18 13:10:49;;;;;;;7.00;4.13;;;;;;;;;;5032634;28;20790;-71
2021/06/18 13:13:31;;;;;;;4.40;3.97;;;;;;;;;;5033032;28;20504;-72
2021/06/18 13:16:09;;;;;;;5.27;4.13;;;;;;;;;;5029666;28;20406;-72
2021/06/18 13:18:54;;;;;;;6.57;4.00;;;;;;;;;;5033372;28;20395;-72
2021/06/18 13:21:20;;;;;;;6.93;4.60;;;;;;;;;;5032319;28;20426;-71
2021/06/18 13:23:47;;;;;;;5.83;3.70;;;;;;;;;;5032719;28;20986;-72
2021/06/18 13:26:13;;;;;;;6.80;4.37;;;;;;;;;;5034099;28;20399;-73
2021/06/18 13:28:47;;;;;;;6.13;3.73;;;;;;;;;;5033105;28;20434;-72
2021/06/18 13:31:18;;;;;;;5.20;3.73;;;;;;;;;;5032138;28;20458;-72
2021/06/18 13:33:46;;;;;;;7.00;4.30;;;;;;;;;;5032903;28;20810;-72
2021/06/18 13:36:12;;;;;;;6.60;4.37;;;;;;;;;;5033941;28;20409;-73
2021/06/18 13:38:38;;;;;;;7.23;4.27;;;;;;;;;;5033441;28;20477;-76
2021/06/18 13:41:04;;;;;;;6.60;4.10;;;;;;;;;;5034631;28;20799;-73
2021/06/18 13:43:30;;;;;;;4.83;3.43;;;;;;;;;;5033241;28;20864;-71
2021/06/18 13:45:56;;;;;;;4.30;3.63;;;;;;;;;;5032593;28;20792;-72
2021/06/18 13:48:22;;;;;;;8.27;3.83;;;;;;;;;;5034088;28;20403;-73
2021/06/18 13:50:49;;;;;;;5.90;3.80;;;;;;;;;;5014521;28;21003;-72
2021/06/18 13:53:16;;;;;;;6.40;3.80;;;;;;;;;;5013995;28;20602;-72
2021/06/18 13:55:42;;;;;;;6.83;3.90;;;;;;;;;;5031174;28;20759;-72
2021/06/18 13:58:08;;;;;;;4.63;3.30;;;;;;;;;;5033713;28;20406;-73
2021/06/18 14:00:34;;;;;;;6.37;3.73;;;;;;;;;;5032459;28;20446;-73
2021/06/18 14:03:01;;;;;;;6.07;3.67;;;;;;;;;;5033390;28;20441;-73
2021/06/18 14:05:27;;;;;;;5.20;3.60;;;;;;;;;;5032737;28;20953;-72
2021/06/18 14:07:53;;;;;;;6.40;3.90;;;;;;;;;;5034069;28;20845;-73
2021/06/18 14:10:20;;;;;;;4.47;3.30;;;;;;;;;;5032566;28;20445;-73
2021/06/18 14:12:46;;;;;;;4.47;3.23;;;;;;;;;;5032090;28;20476;-76
2021/06/18 14:15:21;;;;;;;5.50;3.17;;;;;;;;;;5032443;28;21001;-73
2021/06/18 14:17:47;;;;;;;4.53;3.73;;;;;;;;;;5033451;28;20389;-73
2021/06/18 14:20:14;;;;;;;4.10;3.37;;;;;;;;;;5047566;28;20455;-72
2021/06/18 14:22:40;;;;;;;6.27;3.70;;;;;;;;;;5033426;28;20405;-73
2021/06/18 14:25:06;;;;;;;4.20;3.70;;;;;;;;;;5031684;28;20845;-72
2021/06/18 14:27:32;;;;;;;4.50;3.00;;;;;;;;;;5032994;28;20421;-73
2021/06/18 14:30:00;;;;;;;9.70;2.90;;;;;;;;;;5032430;28;20866;-73
2021/06/18 14:32:26;;;;;;;6.10;3.17;;;;;;;;;;5032452;28;20447;-73
2021/06/18 14:34:52;;;;;;;3.97;2.83;;;;;;;;;;5032513;28;20438;-73
2021/06/18 14:37:19;;;;;;;3.50;3.00;;;;;;;;;;5032759;28;20422;-70
2021/06/18 14:39:45;;;;;;;5.90;3.03;;;;;;;;;;5031523;28;20473;-74
2021/06/18 14:42:11;;;;;;;4.33;3.27;;;;;;;;;;5029920;28;20455;-73
2021/06/18 14:44:38;;;;;;;4.77;2.80;;;;;;;;;;5031517;28;20434;-70
2021/06/18 14:47:05;;;;;;;3.83;2.97;;;;;;;;;;5033304;28;20406;-72